createdAt,value
2022-12-01T00:08:13.396Z,5.46
2022-12-01T00:28:13.437Z,5.49
2022-12-01T01:08:13.340Z,5.54
2022-12-01T01:28:13.319Z,5.56
2022-12-01T01:48:13.318Z,5.56
2022-12-01T02:08:13.278Z,5.61
2022-12-01T02:28:13.256Z,5.63
2022-12-01T02:48:13.221Z,5.58
2022-12-01T03:08:13.204Z,5.45
2022-12-01T03:28:20.972Z,5.42
2022-12-01T04:08:13.174Z,5.49
2022-12-01T04:28:13.124Z,5.5
2022-12-01T04:48:13.089Z,5.43
2022-12-01T05:08:13.116Z,5.4
2022-12-01T05:28:13.060Z,5.45
2022-12-01T05:48:13.046Z,5.48
2022-12-01T06:08:13.012Z,5.43
2022-12-01T06:28:12.985Z,5.44
2022-12-01T06:48:12.972Z,5.31
2022-12-01T07:08:12.980Z,5.22
2022-12-01T07:28:12.970Z,5.14
2022-12-01T07:48:12.916Z,5.1
2022-12-01T08:08:12.970Z,5.15
2022-12-01T08:28:12.926Z,5.13
2022-12-01T08:48:12.842Z,5.24
2022-12-01T09:08:12.917Z,5.24
2022-12-01T09:28:12.844Z,5.32
2022-12-01T09:48:12.792Z,5.47
2022-12-01T10:08:12.799Z,5.7
2022-12-01T10:28:12.747Z,5.69
2022-12-01T10:48:12.701Z,5.83
2022-12-01T11:08:12.686Z,5.89
2022-12-01T11:28:12.663Z,5.89
2022-12-01T11:48:12.647Z,6.04
2022-12-01T12:08:12.621Z,5.86
2022-12-01T12:28:12.609Z,5.89
2022-12-01T12:48:12.576Z,6.04
2022-12-01T13:08:12.558Z,5.93
2022-12-01T13:28:12.544Z,5.93
2022-12-01T14:28:12.459Z,5.79
2022-12-01T15:08:40.087Z,5.48
2022-12-01T15:28:12.405Z,5.31
2022-12-01T16:08:13.588Z,5.17
2022-12-01T16:48:12.313Z,5.03
2022-12-01T17:08:12.361Z,4.95
2022-12-01T17:28:12.281Z,4.71
2022-12-01T17:48:12.262Z,4.57
2022-12-01T18:08:12.286Z,4.52
2022-12-01T18:28:12.214Z,4.49
2022-12-01T18:48:12.192Z,4.37
2022-12-01T19:08:12.202Z,4.31
2022-12-01T19:48:12.146Z,4.21
2022-12-01T20:08:12.192Z,4.14
2022-12-01T20:48:12.081Z,4.06
2022-12-01T21:08:12.110Z,4.04
2022-12-01T21:28:12.033Z,3.97
2022-12-01T21:48:12.019Z,3.87
2022-12-01T22:28:11.976Z,3.64
2022-12-01T22:48:11.967Z,3.53
2022-12-01T23:08:11.994Z,3.4
2022-12-01T23:48:11.913Z,3.32
